www.cux-wetter.de
Wetterdaten: Dienstag, 26.01.2010
Datum Zeit Temp. A. Feuchte A. Luftdruck Regen Wind Richtung Richtung Sonnenschein Solar Taupunkt Windchill Windben
26.01.2010 00:00 -6,3 C 71 % 1037,5 hPa 0,0 l/m 5,7 km/h (2 Bft) O 90 0 min 0 W/m -10,7 C -6,3 C 5,7 km/h (2 Bft)
26.01.2010 00:05 -6,3 C 71 % 1037,5 hPa 0,0 l/m 4,8 km/h (1 Bft) O 90 0 min 0 W/m -10,7 C -6,3 C 4,8 km/h (1 Bft)
26.01.2010 00:10 -6,4 C 70 % 1037,5 hPa 0,0 l/m 9,8 km/h (2 Bft) O 95 0 min 0 W/m -10,9 C -10,3 C 9,8 km/h (2 Bft)
26.01.2010 00:15 -6,4 C 70 % 1037,5 hPa 0,0 l/m 6,3 km/h (2 Bft) O 100 0 min 0 W/m -10,9 C -6,4 C 6,3 km/h (2 Bft)
26.01.2010 00:20 -6,5 C 70 % 1037,5 hPa 0,0 l/m 7,0 km/h (2 Bft) O 100 0 min 0 W/m -11,0 C -7,2 C 7,0 km/h (2 Bft)
26.01.2010 00:25 -6,5 C 70 % 1037,5 hPa 0,0 l/m 5,6 km/h (2 Bft) O 100 0 min 0 W/m -11,0 C -6,5 C 5,6 km/h (2 Bft)
26.01.2010 00:30 -6,6 C 70 % 1037,5 hPa 0,0 l/m 11,6 km/h (2 Bft) O-SO 120 0 min 0 W/m -11,1 C -12,2 C 11,6 km/h (2 Bft)
26.01.2010 00:35 -6,6 C 71 % 1037,5 hPa 0,0 l/m 0,4 km/h (0 Bft) O 100 0 min 0 W/m -11,0 C -6,6 C 0,4 km/h (0 Bft)
26.01.2010 00:40 -6,6 C 70 % 1037,5 hPa 0,0 l/m 7,0 km/h (2 Bft) O 95 0 min 0 W/m -11,1 C -7,3 C 7,0 km/h (2 Bft)
26.01.2010 00:45 -6,6 C 70 % 1037,5 hPa 0,0 l/m 9,9 km/h (2 Bft) O-SO 105 0 min 0 W/m -11,1 C -10,6 C 9,9 km/h (2 Bft)
26.01.2010 00:50 -6,6 C 70 % 1037,5 hPa 0,0 l/m 7,2 km/h (2 Bft) O 100 0 min 0 W/m -11,1 C -7,6 C 7,2 km/h (2 Bft)
26.01.2010 00:55 -6,6 C 70 % 1037,5 hPa 0,0 l/m 9,2 km/h (2 Bft) O 90 0 min 0 W/m -11,1 C -9,9 C 9,2 km/h (2 Bft)
26.01.2010 01:00 -6,7 C 70 % 1037,5 hPa 0,0 l/m 0,6 km/h (0 Bft) O 90 0 min 0 W/m -11,2 C -6,7 C 0,6 km/h (0 Bft)
26.01.2010 01:05 -6,7 C 70 % 1037,5 hPa 0,0 l/m 9,2 km/h (2 Bft) O 85 0 min 0 W/m -11,2 C -10,0 C 9,2 km/h (2 Bft)
26.01.2010 01:10 -6,7 C 69 % 1037,5 hPa 0,0 l/m 8,3 km/h (2 Bft) O 95 0 min 0 W/m -11,4 C -9,0 C 8,3 km/h (2 Bft)
26.01.2010 01:15 -6,7 C 69 % 1037,5 hPa 0,0 l/m 12,6 km/h (3 Bft) O-SO 115 0 min 0 W/m -11,4 C -13,2 C 12,6 km/h (3 Bft)
26.01.2010 01:20 -6,7 C 69 % 1037,5 hPa 0,0 l/m 9,8 km/h (2 Bft) O 100 0 min 0 W/m -11,4 C -10,6 C 9,8 km/h (2 Bft)
26.01.2010 01:25 -6,7 C 69 % 1037,5 hPa 0,0 l/m 9,0 km/h (2 Bft) SO 130 0 min 0 W/m -11,4 C -9,8 C 9,0 km/h (2 Bft)
26.01.2010 01:30 -6,7 C 69 % 1037,5 hPa 0,0 l/m 8,3 km/h (2 Bft) O-SO 105 0 min 0 W/m -11,4 C -9,0 C 8,3 km/h (2 Bft)
26.01.2010 01:35 -6,8 C 69 % 1037,5 hPa 0,0 l/m 8,9 km/h (2 Bft) O-SO 110 0 min 0 W/m -11,5 C -9,8 C 8,9 km/h (2 Bft)
26.01.2010 01:40 -6,8 C 69 % 1037,5 hPa 0,0 l/m 12,1 km/h (2 Bft) O 80 0 min 0 W/m -11,5 C -12,9 C 12,1 km/h (2 Bft)
26.01.2010 01:45 -6,8 C 69 % 1037,5 hPa 0,0 l/m 1,4 km/h (1 Bft) O-SO 105 0 min 0 W/m -11,5 C -6,8 C 1,4 km/h (1 Bft)
26.01.2010 01:50 -6,7 C 69 % 1037,5 hPa 0,0 l/m 5,9 km/h (2 Bft) O 100 0 min 0 W/m -11,4 C -6,7 C 5,9 km/h (2 Bft)
26.01.2010 01:55 -6,7 C 69 % 1037,5 hPa 0,0 l/m 8,1 km/h (2 Bft) O-SO 105 0 min 0 W/m -11,4 C -8,8 C 8,1 km/h (2 Bft)
26.01.2010 02:01 -6,7 C 69 % 1037,5 hPa 0,0 l/m 8,0 km/h (2 Bft) O 100 0 min 0 W/m -11,4 C -8,7 C 8,0 km/h (2 Bft)
26.01.2010 02:05 -6,7 C 69 % 1037,5 hPa 0,0 l/m 0,3 km/h (0 Bft) O-SO 115 0 min 0 W/m -11,4 C -6,7 C 0,3 km/h (0 Bft)
26.01.2010 02:10 -6,7 C 69 % 1037,5 hPa 0,0 l/m 7,9 km/h (2 Bft) O-SO 105 0 min 0 W/m -11,4 C -8,6 C 7,9 km/h (2 Bft)
26.01.2010 02:16 -6,7 C 68 % 1037,5 hPa 0,0 l/m 6,7 km/h (2 Bft) O-SO 110 0 min 0 W/m -11,6 C -7,1 C 6,7 km/h (2 Bft)
26.01.2010 02:20 -6,7 C 68 % 1037,5 hPa 0,0 l/m 6,8 km/h (2 Bft) O-SO 115 0 min 0 W/m -11,6 C -7,2 C 6,8 km/h (2 Bft)
26.01.2010 02:25 -6,8 C 68 % 1037,5 hPa 0,0 l/m 2,7 km/h (1 Bft) O-SO 115 0 min 0 W/m -11,7 C -6,8 C 2,7 km/h (1 Bft)
26.01.2010 02:30 -6,8 C 68 % 1037,5 hPa 0,0 l/m 1,1 km/h (1 Bft) O-SO 115 0 min 0 W/m -11,7 C -6,8 C 1,1 km/h (1 Bft)
26.01.2010 02:35 -6,8 C 68 % 1038,5 hPa 0,0 l/m 1,3 km/h (1 Bft) O-SO 115 0 min 0 W/m -11,7 C -6,8 C 1,3 km/h (1 Bft)
26.01.2010 02:40 -6,8 C 68 % 1037,5 hPa 0,0 l/m 1,5 km/h (1 Bft) O 90 0 min 0 W/m -11,7 C -6,8 C 1,5 km/h (1 Bft)
26.01.2010 02:46 -6,9 C 68 % 1037,5 hPa 0,0 l/m 0,0 km/h (0 Bft) O-SO 110 0 min 0 W/m -11,8 C -6,9 C 0,0 km/h (0 Bft)
26.01.2010 02:50 -6,9 C 68 % 1037,5 hPa 0,0 l/m 4,8 km/h (1 Bft) O-SO 110 0 min 0 W/m -11,8 C -6,9 C 4,8 km/h (1 Bft)
26.01.2010 02:55 -7,0 C 68 % 1037,5 hPa 0,0 l/m 6,7 km/h (2 Bft) O-SO 120 0 min 0 W/m -11,9 C -7,4 C 6,7 km/h (2 Bft)
26.01.2010 03:00 -6,9 C 68 % 1037,5 hPa 0,0 l/m 3,6 km/h (1 Bft) O-SO 115 0 min 0 W/m -11,8 C -6,9 C 3,6 km/h (1 Bft)
26.01.2010 03:05 -6,9 C 68 % 1037,5 hPa 0,0 l/m 7,2 km/h (2 Bft) O 95 0 min 0 W/m -11,8 C -7,9 C 7,2 km/h (2 Bft)
26.01.2010 03:10 -7,0 C 68 % 1037,5 hPa 0,0 l/m 7,2 km/h (2 Bft) O 95 0 min 0 W/m -11,9 C -8,0 C 7,2 km/h (2 Bft)
26.01.2010 03:15 -7,1 C 68 % 1037,5 hPa 0,0 l/m 7,1 km/h (2 Bft) O-NO 70 0 min 0 W/m -12,0 C -8,0 C 7,1 km/h (2 Bft)
26.01.2010 03:21 -7,1 C 68 % 1037,5 hPa 0,0 l/m 6,5 km/h (2 Bft) O 90 0 min 0 W/m -12,0 C -7,2 C 6,5 km/h (2 Bft)
26.01.2010 03:25 -7,1 C 68 % 1037,5 hPa 0,0 l/m 7,3 km/h (2 Bft) O 85 0 min 0 W/m -12,0 C -8,2 C 7,3 km/h (2 Bft)
26.01.2010 03:30 -7,1 C 68 % 1038,5 hPa 0,0 l/m 4,6 km/h (1 Bft) NO 45 0 min 0 W/m -12,0 C -7,1 C 4,6 km/h (1 Bft)
26.01.2010 03:35 -7,1 C 68 % 1038,5 hPa 0,0 l/m 0,0 km/h (0 Bft) N-NO 25 0 min 0 W/m -12,0 C -7,1 C 0,0 km/h (0 Bft)
26.01.2010 03:40 -7,1 C 68 % 1038,5 hPa 0,0 l/m 0,8 km/h (0 Bft) O 90 0 min 0 W/m -12,0 C -7,1 C 0,8 km/h (0 Bft)
26.01.2010 03:45 -7,1 C 68 % 1038,5 hPa 0,0 l/m 1,3 km/h (1 Bft) O 90 0 min 0 W/m -12,0 C -7,1 C 1,3 km/h (1 Bft)
26.01.2010 03:50 -7,1 C 68 % 1038,5 hPa 0,0 l/m 2,8 km/h (1 Bft) O 80 0 min 0 W/m -12,0 C -7,1 C 2,8 km/h (1 Bft)
26.01.2010 03:55 -7,1 C 67 % 1038,5 hPa 0,0 l/m 0,7 km/h (0 Bft) O 80 0 min 0 W/m -12,2 C -7,1 C 0,7 km/h (0 Bft)
26.01.2010 04:00 -7,1 C 67 % 1038,5 hPa 0,0 l/m 0,0 km/h (0 Bft) O-NO 70 0 min 0 W/m -12,2 C -7,1 C 0,0 km/h (0 Bft)
26.01.2010 04:05 -7,2 C 67 % 1038,5 hPa 0,0 l/m 0,2 km/h (0 Bft) O 80 0 min 0 W/m -12,3 C -7,2 C 0,2 km/h (0 Bft)
26.01.2010 04:10 -7,2 C 67 % 1038,5 hPa 0,0 l/m 1,5 km/h (1 Bft) O 80 0 min 0 W/m -12,3 C -7,2 C 1,5 km/h (1 Bft)
26.01.2010 04:15 -7,3 C 67 % 1038,5 hPa 0,0 l/m 0,3 km/h (0 Bft) O 85 0 min 0 W/m -12,4 C -7,3 C 0,3 km/h (0 Bft)
26.01.2010 04:20 -7,3 C 67 % 1038,5 hPa 0,0 l/m 0,0 km/h (0 Bft) O 85 0 min 0 W/m -12,4 C -7,3 C 0,0 km/h (0 Bft)
26.01.2010 04:25 -7,4 C 67 % 1038,5 hPa 0,0 l/m 1,1 km/h (1 Bft) O 80 0 min 0 W/m -12,4 C -7,4 C 1,1 km/h (1 Bft)
26.01.2010 04:30 -7,4 C 67 % 1038,5 hPa 0,0 l/m 0,6 km/h (0 Bft) O-NO 75 0 min 0 W/m -12,4 C -7,4 C 0,6 km/h (0 Bft)
26.01.2010 04:35 -7,4 C 67 % 1038,5 hPa 0,0 l/m 0,3 km/h (0 Bft) O-NO 75 0 min 0 W/m -12,4 C -7,4 C 0,3 km/h (0 Bft)
26.01.2010 04:41 -7,4 C 67 % 1038,5 hPa 0,0 l/m 0,1 km/h (0 Bft) O-NO 70 0 min 0 W/m -12,4 C -7,4 C 0,1 km/h (0 Bft)
26.01.2010 04:45 -7,4 C 67 % 1038,5 hPa 0,0 l/m 0,4 km/h (0 Bft) O-NO 70 0 min 0 W/m -12,4 C -7,4 C 0,4 km/h (0 Bft)
26.01.2010 04:50 -7,4 C 67 % 1038,5 hPa 0,0 l/m 0,2 km/h (0 Bft) O-NO 70 0 min 0 W/m -12,4 C -7,4 C 0,2 km/h (0 Bft)
26.01.2010 04:55 -7,5 C 67 % 1038,5 hPa 0,0 l/m 0,0 km/h (0 Bft) O-NO 70 0 min 0 W/m -12,5 C -7,5 C 0,0 km/h (0 Bft)
26.01.2010 05:00 -7,5 C 67 % 1038,5 hPa 0,0 l/m 0,0 km/h (0 Bft) O-NO 70 0 min 0 W/m -12,5 C -7,5 C 0,0 km/h (0 Bft)
26.01.2010 05:05 -7,5 C 67 % 1039,5 hPa 0,0 l/m 0,0 km/h (0 Bft) O-NO 70 0 min 0 W/m -12,5 C -7,5 C 0,0 km/h (0 Bft)
26.01.2010 05:10 -7,5 C 67 % 1039,5 hPa 0,0 l/m 0,0 km/h (0 Bft) O-NO 70 0 min 0 W/m -12,5 C -7,5 C 0,0 km/h (0 Bft)
26.01.2010 05:15 -7,6 C 67 % 1039,5 hPa 0,0 l/m 0,0 km/h (0 Bft) O-NO 70 0 min 0 W/m -12,6 C -7,6 C 0,0 km/h (0 Bft)
26.01.2010 05:20 -7,6 C 67 % 1038,5 hPa 0,0 l/m 0,0 km/h (0 Bft) O-NO 70 0 min 0 W/m -12,6 C -7,6 C 0,0 km/h (0 Bft)
26.01.2010 05:25 -7,7 C 67 % 1038,5 hPa 0,0 l/m 0,0 km/h (0 Bft) O-NO 70 0 min 0 W/m -12,7 C -7,7 C 0,0 km/h (0 Bft)
26.01.2010 05:30 -7,7 C 67 % 1038,5 hPa 0,0 l/m 0,0 km/h (0 Bft) O-NO 70 0 min 0 W/m -12,7 C -7,7 C 0,0 km/h (0 Bft)
26.01.2010 05:35 -7,7 C 67 % 1038,5 hPa 0,0 l/m 0,0 km/h (0 Bft) O-NO 70 0 min 0 W/m -12,7 C -7,7 C 0,0 km/h (0 Bft)
26.01.2010 05:40 -7,7 C 67 % 1038,5 hPa 0,0 l/m 0,0 km/h (0 Bft) O-NO 70 0 min 0 W/m -12,7 C -7,7 C 0,0 km/h (0 Bft)
26.01.2010 05:45 -7,8 C 67 % 1038,5 hPa 0,0 l/m 0,0 km/h (0 Bft) O-NO 70 0 min 0 W/m -12,8 C -7,8 C 0,0 km/h (0 Bft)
26.01.2010 05:50 -7,8 C 67 % 1039,5 hPa 0,0 l/m 0,0 km/h (0 Bft) O-NO 70 0 min 0 W/m -12,8 C -7,8 C 0,0 km/h (0 Bft)
26.01.2010 05:55 -7,8 C 67 % 1039,5 hPa 0,0 l/m 0,0 km/h (0 Bft) O-NO 70 0 min 0 W/m -12,8 C -7,8 C 0,0 km/h (0 Bft)
26.01.2010 06:01 -7,8 C 67 % 1039,5 hPa 0,0 l/m 0,0 km/h (0 Bft) O-NO 70 0 min 0 W/m -12,8 C -7,8 C 0,0 km/h (0 Bft)
26.01.2010 06:05 -7,8 C 67 % 1039,5 hPa 0,0 l/m 0,0 km/h (0 Bft) O-NO 70 0 min 0 W/m -12,8 C -7,8 C 0,0 km/h (0 Bft)
26.01.2010 06:10 -7,8 C 68 % 1039,5 hPa 0,0 l/m 0,0 km/h (0 Bft) O-NO 70 0 min 0 W/m -12,6 C -7,8 C 0,0 km/h (0 Bft)
26.01.2010 06:15 -7,8 C 68 % 1038,5 hPa 0,0 l/m 0,0 km/h (0 Bft) O-NO 70 0 min 0 W/m -12,6 C -7,8 C 0,0 km/h (0 Bft)
26.01.2010 06:20 -7,8 C 68 % 1039,5 hPa 0,0 l/m 0,0 km/h (0 Bft) O-NO 70 0 min 0 W/m -12,6 C -7,8 C 0,0 km/h (0 Bft)
26.01.2010 06:25 -7,8 C 68 % 1039,5 hPa 0,0 l/m 0,0 km/h (0 Bft) O-NO 70 0 min 0 W/m -12,6 C -7,8 C 0,0 km/h (0 Bft)
26.01.2010 06:30 -7,8 C 68 % 1039,5 hPa 0,0 l/m 0,0 km/h (0 Bft) O-NO 70 0 min 0 W/m -12,6 C -7,8 C 0,0 km/h (0 Bft)
26.01.2010 06:35 -7,8 C 69 % 1039,5 hPa 0,0 l/m 0,0 km/h (0 Bft) O-NO 70 0 min 0 W/m -12,5 C -7,8 C 0,0 km/h (0 Bft)
26.01.2010 06:40 -7,8 C 69 % 1039,5 hPa 0,0 l/m 0,0 km/h (0 Bft) O-NO 70 0 min 0 W/m -12,5 C -7,8 C 0,0 km/h (0 Bft)
26.01.2010 06:45 -7,8 C 69 % 1039,5 hPa 0,0 l/m 0,0 km/h (0 Bft) O-NO 70 0 min 0 W/m -12,5 C -7,8 C 0,0 km/h (0 Bft)
26.01.2010 06:50 -7,7 C 70 % 1039,5 hPa 0,0 l/m 0,0 km/h (0 Bft) O-NO 70 0 min 0 W/m -12,2 C -7,7 C 0,0 km/h (0 Bft)
26.01.2010 06:55 -7,7 C 70 % 1039,5 hPa 0,0 l/m 0,1 km/h (0 Bft) O-NO 70 0 min 0 W/m -12,2 C -7,7 C 0,1 km/h (0 Bft)
26.01.2010 07:00 -7,6 C 70 % 1039,5 hPa 0,0 l/m 0,0 km/h (0 Bft) O-NO 70 0 min 0 W/m -12,1 C -7,6 C 0,0 km/h (0 Bft)
26.01.2010 07:05 -7,6 C 70 % 1039,5 hPa 0,0 l/m 0,0 km/h (0 Bft) O-NO 70 0 min 0 W/m -12,1 C -7,6 C 0,0 km/h (0 Bft)
26.01.2010 07:10 -7,6 C 70 % 1039,5 hPa 0,0 l/m 0,1 km/h (0 Bft) O-NO 70 0 min 0 W/m -12,1 C -7,6 C 0,1 km/h (0 Bft)
26.01.2010 07:15 -7,6 C 70 % 1039,5 hPa 0,0 l/m 1,2 km/h (1 Bft) O-NO 75 0 min 0 W/m -12,1 C -7,6 C 1,2 km/h (1 Bft)
26.01.2010 07:20 -7,5 C 71 % 1039,5 hPa 0,0 l/m 0,3 km/h (0 Bft) O-NO 75 0 min 0 W/m -11,8 C -7,5 C 0,3 km/h (0 Bft)
26.01.2010 07:26 -7,5 C 71 % 1039,5 hPa 0,0 l/m 0,3 km/h (0 Bft) O-NO 75 0 min 0 W/m -11,8 C -7,5 C 0,3 km/h (0 Bft)
26.01.2010 07:30 -7,5 C 71 % 1039,5 hPa 0,0 l/m 0,0 km/h (0 Bft) O-NO 75 0 min 0 W/m -11,8 C -7,5 C 0,0 km/h (0 Bft)
26.01.2010 07:35 -7,5 C 71 % 1039,5 hPa 0,0 l/m 0,6 km/h (0 Bft) O-NO 75 0 min 0 W/m -11,8 C -7,5 C 0,6 km/h (0 Bft)
26.01.2010 07:40 -7,4 C 71 % 1040,5 hPa 0,0 l/m 0,0 km/h (0 Bft) O-NO 65 0 min 0 W/m -11,7 C -7,4 C 0,0 km/h (0 Bft)
26.01.2010 07:46 -7,3 C 71 % 1040,5 hPa 0,0 l/m 0,0 km/h (0 Bft) O-NO 65 0 min 0 W/m -11,6 C -7,3 C 0,0 km/h (0 Bft)
26.01.2010 07:50 -7,2 C 71 % 1040,5 hPa 0,0 l/m 0,0 km/h (0 Bft) O-NO 65 0 min 0 W/m -11,5 C -7,2 C 0,0 km/h (0 Bft)
26.01.2010 07:55 -7,2 C 71 % 1040,5 hPa 0,0 l/m 0,0 km/h (0 Bft) O-NO 65 0 min 0 W/m -11,5 C -7,2 C 0,0 km/h (0 Bft)
26.01.2010 08:00 -7,1 C 71 % 1040,5 hPa 0,0 l/m 0,5 km/h (0 Bft) O-NO 70 0 min 0 W/m -11,4 C -7,1 C 0,5 km/h (0 Bft)
26.01.2010 08:05 -7,1 C 72 % 1040,5 hPa 0,0 l/m 0,0 km/h (0 Bft) O-NO 70 0 min 0 W/m -11,3 C -7,1 C 0,0 km/h (0 Bft)
26.01.2010 08:10 -7,0 C 72 % 1040,5 hPa 0,0 l/m 0,0 km/h (0 Bft) O-NO 70 0 min 0 W/m -11,2 C -7,0 C 0,0 km/h (0 Bft)
26.01.2010 08:15 -6,9 C 72 % 1040,5 hPa 0,0 l/m 0,6 km/h (0 Bft) O 80 0 min 0 W/m -11,1 C -6,9 C 0,6 km/h (0 Bft)
26.01.2010 08:20 -6,9 C 72 % 1040,5 hPa 0,0 l/m 0,6 km/h (0 Bft) O-NO 70 0 min 0 W/m -11,1 C -6,9 C 0,6 km/h (0 Bft)
26.01.2010 08:25 -6,8 C 72 % 1040,5 hPa 0,0 l/m 0,0 km/h (0 Bft) NO 45 0 min 0 W/m -11,0 C -6,8 C 0,0 km/h (0 Bft)
26.01.2010 08:30 -6,7 C 73 % 1040,5 hPa 0,0 l/m 0,6 km/h (0 Bft) O-NO 65 0 min 0 W/m -10,7 C -6,7 C 0,6 km/h (0 Bft)
26.01.2010 08:35 -6,7 C 73 % 1040,5 hPa 0,0 l/m 0,4 km/h (0 Bft) NO 55 0 min 0 W/m -10,7 C -6,7 C 0,4 km/h (0 Bft)
26.01.2010 08:40 -6,6 C 73 % 1040,5 hPa 0,0 l/m 0,1 km/h (0 Bft) N 350 0 min 0 W/m -10,6 C -6,6 C 0,1 km/h (0 Bft)
26.01.2010 08:45 -6,5 C 73 % 1040,5 hPa 0,0 l/m 1,2 km/h (1 Bft) O-NO 75 0 min 0 W/m -10,5 C -6,5 C 1,2 km/h (1 Bft)
26.01.2010 08:50 -6,5 C 73 % 1040,5 hPa 0,0 l/m 0,6 km/h (0 Bft) O-SO 110 0 min 0 W/m -10,5 C -6,5 C 0,6 km/h (0 Bft)
26.01.2010 08:55 -6,5 C 73 % 1040,5 hPa 0,0 l/m 4,6 km/h (1 Bft) O 85 0 min 0 W/m -10,5 C -6,5 C 4,6 km/h (1 Bft)
26.01.2010 09:00 -6,4 C 74 % 1040,5 hPa 0,0 l/m 0,0 km/h (0 Bft) NO 55 0 min 0 W/m -10,2 C -6,4 C 0,0 km/h (0 Bft)
26.01.2010 09:05 -6,3 C 74 % 1040,5 hPa 0,0 l/m 0,7 km/h (0 Bft) O 85 0 min 0 W/m -10,2 C -6,3 C 0,7 km/h (0 Bft)
26.01.2010 09:10 -6,3 C 74 % 1040,5 hPa 0,0 l/m 5,7 km/h (2 Bft) O-NO 75 0 min 0 W/m -10,2 C -6,3 C 5,7 km/h (2 Bft)
26.01.2010 09:15 -6,2 C 74 % 1040,5 hPa 0,0 l/m 10,4 km/h (2 Bft) O 80 0 min 0 W/m -10,1 C -10,7 C 10,4 km/h (2 Bft)
26.01.2010 09:20 -6,1 C 75 % 1040,5 hPa 0,0 l/m 5,0 km/h (1 Bft) O-SO 105 0 min 0 W/m -9,8 C -6,1 C 5,0 km/h (1 Bft)
26.01.2010 09:25 -6,1 C 75 % 1040,5 hPa 0,0 l/m 5,5 km/h (2 Bft) O 100 0 min 0 W/m -9,8 C -6,1 C 5,5 km/h (2 Bft)
26.01.2010 09:30 -5,9 C 75 % 1040,5 hPa 0,0 l/m 6,6 km/h (2 Bft) O-NO 70 0 min 0 W/m -9,6 C -6,1 C 6,6 km/h (2 Bft)
26.01.2010 09:35 -5,8 C 75 % 1040,5 hPa 0,0 l/m 0,2 km/h (0 Bft) O-NO 70 0 min 0 W/m -9,5 C -5,8 C 0,2 km/h (0 Bft)
26.01.2010 09:40 -5,7 C 75 % 1040,5 hPa 0,0 l/m 6,5 km/h (2 Bft) O 85 0 min 0 W/m -9,4 C -5,8 C 6,5 km/h (2 Bft)
26.01.2010 09:45 -5,7 C 75 % 1040,5 hPa 0,0 l/m 12,5 km/h (2 Bft) O 80 0 min 0 W/m -9,4 C -12,0 C 12,5 km/h (2 Bft)
26.01.2010 09:50 -5,5 C 75 % 1040,5 hPa 0,0 l/m 1,8 km/h (1 Bft) O-NO 70 0 min 0 W/m -9,2 C -5,5 C 1,8 km/h (1 Bft)
26.01.2010 09:55 -5,4 C 75 % 1040,5 hPa 0,0 l/m 8,4 km/h (2 Bft) O-SO 110 0 min 0 W/m -9,1 C -7,8 C 8,4 km/h (2 Bft)
26.01.2010 10:00 -5,4 C 75 % 1040,5 hPa 0,0 l/m 0,7 km/h (0 Bft) O-NO 70 0 min 0 W/m -9,1 C -5,4 C 0,7 km/h (0 Bft)
26.01.2010 10:05 -5,1 C 75 % 1040,5 hPa 0,0 l/m 9,7 km/h (2 Bft) O-NO 65 0 min 0 W/m -8,8 C -8,8 C 9,7 km/h (2 Bft)
26.01.2010 10:10 -5,0 C 75 % 1040,5 hPa 0,0 l/m 7,8 km/h (2 Bft) O-NO 60 0 min 0 W/m -8,7 C -6,7 C 7,8 km/h (2 Bft)
26.01.2010 10:16 -4,9 C 75 % 1040,5 hPa 0,0 l/m 6,9 km/h (2 Bft) O-SO 115 0 min 0 W/m -8,6 C -5,5 C 6,9 km/h (2 Bft)
26.01.2010 10:20 -4,9 C 75 % 1040,5 hPa 0,0 l/m 11,4 km/h (2 Bft) O 100 0 min 0 W/m -8,6 C -10,1 C 11,4 km/h (2 Bft)
26.01.2010 10:25 -4,7 C 75 % 1040,5 hPa 0,0 l/m 1,8 km/h (1 Bft) O-SO 120 0 min 0 W/m -8,4 C -4,7 C 1,8 km/h (1 Bft)
26.01.2010 10:30 -4,7 C 75 % 1040,5 hPa 0,0 l/m 1,5 km/h (1 Bft) O-SO 105 0 min 0 W/m -8,4 C -4,7 C 1,5 km/h (1 Bft)
26.01.2010 10:35 -4,6 C 74 % 1040,5 hPa 0,0 l/m 8,6 km/h (2 Bft) SO 125 0 min 0 W/m -8,5 C -7,1 C 8,6 km/h (2 Bft)
26.01.2010 10:40 -4,4 C 74 % 1041,5 hPa 0,0 l/m 10,1 km/h (2 Bft) O-SO 115 0 min 0 W/m -8,3 C -8,4 C 10,1 km/h (2 Bft)
26.01.2010 10:45 -4,3 C 74 % 1041,5 hPa 0,0 l/m 9,2 km/h (2 Bft) O-SO 120 0 min 0 W/m -8,2 C -7,4 C 9,2 km/h (2 Bft)
26.01.2010 10:50 -4,2 C 74 % 1041,5 hPa 0,0 l/m 7,8 km/h (2 Bft) O 100 0 min 0 W/m -8,1 C -5,8 C 7,8 km/h (2 Bft)
26.01.2010 10:55 -4,2 C 74 % 1041,5 hPa 0,0 l/m 3,1 km/h (1 Bft) O-SO 105 0 min 0 W/m -8,1 C -4,2 C 3,1 km/h (1 Bft)
26.01.2010 11:00 -4,1 C 74 % 1041,5 hPa 0,0 l/m 6,7 km/h (2 Bft) O 95 0 min 0 W/m -8,0 C -4,4 C 6,7 km/h (2 Bft)
26.01.2010 11:05 -4,1 C 73 % 1041,5 hPa 0,0 l/m 12,5 km/h (2 Bft) O-SO 110 0 min 0 W/m -8,2 C -10,1 C 12,5 km/h (2 Bft)
26.01.2010 11:10 -4,0 C 73 % 1041,5 hPa 0,0 l/m 8,9 km/h (2 Bft) O 95 0 min 0 W/m -8,1 C -6,8 C 8,9 km/h (2 Bft)
26.01.2010 11:16 -3,9 C 73 % 1041,5 hPa 0,0 l/m 7,4 km/h (2 Bft) O 80 0 min 0 W/m -8,0 C -5,1 C 7,4 km/h (2 Bft)
26.01.2010 11:20 -3,8 C 73 % 1041,5 hPa 0,0 l/m 8,2 km/h (2 Bft) O-NO 75 0 min 0 W/m -7,9 C -5,9 C 8,2 km/h (2 Bft)
26.01.2010 11:25 -3,8 C 72 % 1041,5 hPa 0,0 l/m 7,2 km/h (2 Bft) O 95 0 min 0 W/m -8,1 C -4,7 C 7,2 km/h (2 Bft)
26.01.2010 11:30 -3,7 C 72 % 1041,5 hPa 0,0 l/m 7,2 km/h (2 Bft) O 80 0 min 0 W/m -8,0 C -4,6 C 7,2 km/h (2 Bft)
26.01.2010 11:35 -3,6 C 73 % 1041,5 hPa 0,0 l/m 7,0 km/h (2 Bft) O 80 0 min 0 W/m -7,7 C -4,3 C 7,0 km/h (2 Bft)
26.01.2010 11:41 -3,5 C 72 % 1041,5 hPa 0,0 l/m 4,5 km/h (1 Bft) O 80 0 min 0 W/m -7,8 C -3,5 C 4,5 km/h (1 Bft)
26.01.2010 11:45 -3,4 C 71 % 1041,5 hPa 0,0 l/m 13,0 km/h (3 Bft) O 95 0 min 0 W/m -7,9 C -9,7 C 13,0 km/h (3 Bft)
26.01.2010 11:50 -3,2 C 71 % 1041,5 hPa 0,0 l/m 10,8 km/h (2 Bft) O 90 0 min 0 W/m -7,7 C -7,7 C 10,8 km/h (2 Bft)
26.01.2010 11:55 -2,7 C 71 % 1041,5 hPa 0,0 l/m 7,6 km/h (2 Bft) O-NO 70 0 min 0 W/m -7,2 C -4,0 C 7,6 km/h (2 Bft)
26.01.2010 12:00 -2,2 C 70 % 1041,5 hPa 0,0 l/m 11,9 km/h (2 Bft) O 95 0 min 0 W/m -6,9 C -7,5 C 11,9 km/h (2 Bft)
26.01.2010 12:05 -1,8 C 69 % 1041,5 hPa 0,0 l/m 7,8 km/h (2 Bft) O-SO 115 0 min 0 W/m -6,7 C -3,3 C 7,8 km/h (2 Bft)
26.01.2010 12:10 -1,6 C 69 % 1041,5 hPa 0,0 l/m 8,2 km/h (2 Bft) O-SO 105 0 min 0 W/m -6,5 C -3,5 C 8,2 km/h (2 Bft)
26.01.2010 12:15 -1,4 C 68 % 1041,5 hPa 0,0 l/m 6,5 km/h (2 Bft) O 100 0 min 0 W/m -6,5 C -1,5 C 6,5 km/h (2 Bft)
26.01.2010 12:20 -1,0 C 67 % 1041,5 hPa 0,0 l/m 9,4 km/h (2 Bft) NO 50 0 min 0 W/m -6,3 C -4,0 C 9,4 km/h (2 Bft)
26.01.2010 12:25 -1,0 C 67 % 1041,5 hPa 0,0 l/m 11,5 km/h (2 Bft) O-NO 65 0 min 0 W/m -6,3 C -5,8 C 11,5 km/h (2 Bft)
26.01.2010 12:30 -0,8 C 66 % 1041,5 hPa 0,0 l/m 4,8 km/h (1 Bft) O-NO 60 0 min 0 W/m -6,3 C -0,8 C 4,8 km/h (1 Bft)
26.01.2010 12:35 -0,7 C 65 % 1041,5 hPa 0,0 l/m 7,4 km/h (2 Bft) O-NO 70 0 min 0 W/m -6,4 C -1,8 C 7,4 km/h (2 Bft)
26.01.2010 12:40 -0,6 C 64 % 1041,5 hPa 0,0 l/m 8,3 km/h (2 Bft) O 100 0 min 0 W/m -6,5 C -2,6 C 8,3 km/h (2 Bft)
26.01.2010 12:45 -0,6 C 63 % 1041,5 hPa 0,0 l/m 3,8 km/h (1 Bft) O-NO 75 0 min 0 W/m -6,8 C -0,6 C 3,8 km/h (1 Bft)
26.01.2010 12:50 -0,5 C 63 % 1041,5 hPa 0,0 l/m 4,6 km/h (1 Bft) O-NO 70 0 min 0 W/m -6,7 C -0,5 C 4,6 km/h (1 Bft)
26.01.2010 12:55 -0,4 C 62 % 1041,5 hPa 0,0 l/m 7,4 km/h (2 Bft) O 90 0 min 0 W/m -6,8 C -1,5 C 7,4 km/h (2 Bft)
26.01.2010 13:00 -0,4 C 62 % 1041,5 hPa 0,0 l/m 6,1 km/h (2 Bft) SO 135 0 min 0 W/m -6,8 C -0,4 C 6,1 km/h (2 Bft)
26.01.2010 13:05 -0,3 C 61 % 1041,5 hPa 0,0 l/m 8,4 km/h (2 Bft) O 90 0 min 0 W/m -6,9 C -2,4 C 8,4 km/h (2 Bft)
26.01.2010 13:10 -0,4 C 61 % 1040,5 hPa 0,0 l/m 7,6 km/h (2 Bft) O-NO 75 0 min 0 W/m -7,0 C -1,7 C 7,6 km/h (2 Bft)
26.01.2010 13:15 -0,4 C 62 % 1040,5 hPa 0,0 l/m 3,6 km/h (1 Bft) O-NO 75 0 min 0 W/m -6,8 C -0,4 C 3,6 km/h (1 Bft)
26.01.2010 13:20 -0,4 C 62 % 1040,5 hPa 0,0 l/m 0,7 km/h (0 Bft) O-SO 105 0 min 0 W/m -6,8 C -0,4 C 0,7 km/h (0 Bft)
26.01.2010 13:26 -0,3 C 62 % 1040,5 hPa 0,0 l/m 0,6 km/h (0 Bft) O 90 0 min 0 W/m -6,7 C -0,3 C 0,6 km/h (0 Bft)
26.01.2010 13:30 -0,3 C 62 % 1040,5 hPa 0,0 l/m 6,3 km/h (2 Bft) O-NO 65 0 min 0 W/m -6,7 C -0,3 C 6,3 km/h (2 Bft)
26.01.2010 13:35 -0,3 C 61 % 1040,5 hPa 0,0 l/m 7,6 km/h (2 Bft) O-NO 75 0 min 0 W/m -6,9 C -1,6 C 7,6 km/h (2 Bft)
26.01.2010 13:40 -0,3 C 61 % 1040,5 hPa 0,0 l/m 7,5 km/h (2 Bft) O-NO 70 0 min 0 W/m -6,9 C -1,5 C 7,5 km/h (2 Bft)
26.01.2010 13:45 -0,3 C 61 % 1040,5 hPa 0,0 l/m 7,6 km/h (2 Bft) O 80 0 min 0 W/m -6,9 C -1,6 C 7,6 km/h (2 Bft)
26.01.2010 13:51 -0,4 C 61 % 1040,5 hPa 0,0 l/m 7,4 km/h (2 Bft) O 80 0 min 0 W/m -7,0 C -1,5 C 7,4 km/h (2 Bft)
26.01.2010 13:55 -0,4 C 62 % 1040,5 hPa 0,0 l/m 9,6 km/h (2 Bft) O-NO 60 0 min 0 W/m -6,8 C -3,6 C 9,6 km/h (2 Bft)
26.01.2010 14:00 -0,5 C 61 % 1040,5 hPa 0,0 l/m 5,2 km/h (1 Bft) SO 130 0 min 0 W/m -7,1 C -0,5 C 5,2 km/h (1 Bft)
26.01.2010 14:05 -0,5 C 61 % 1040,5 hPa 0,0 l/m 7,8 km/h (2 Bft) O-SO 120 0 min 0 W/m -7,1 C -2,0 C 7,8 km/h (2 Bft)
26.01.2010 14:10 -0,4 C 62 % 1040,5 hPa 0,3 l/m 9,3 km/h (2 Bft) O-SO 110 0 min 0 W/m -6,8 C -3,3 C 9,3 km/h (2 Bft)
26.01.2010 14:15 -0,5 C 62 % 1040,5 hPa 0,0 l/m 9,6 km/h (2 Bft) O-SO 105 0 min 0 W/m -6,9 C -3,7 C 9,6 km/h (2 Bft)
26.01.2010 14:20 -0,6 C 62 % 1040,5 hPa 0,0 l/m 4,1 km/h (1 Bft) O-NO 65 0 min 0 W/m -7,0 C -0,6 C 4,1 km/h (1 Bft)
26.01.2010 14:25 -0,6 C 62 % 1040,5 hPa 0,0 l/m 9,2 km/h (2 Bft) O 90 0 min 0 W/m -7,0 C -3,4 C 9,2 km/h (2 Bft)
26.01.2010 14:30 -0,6 C 62 % 1040,5 hPa 0,0 l/m 1,8 km/h (1 Bft) O-SO 105 0 min 0 W/m -7,0 C -0,6 C 1,8 km/h (1 Bft)
26.01.2010 14:35 -0,6 C 62 % 1040,5 hPa 0,0 l/m 9,2 km/h (2 Bft) O 90 0 min 0 W/m -7,0 C -3,4 C 9,2 km/h (2 Bft)
26.01.2010 14:40 -0,5 C 63 % 1040,5 hPa 0,0 l/m 1,2 km/h (1 Bft) O 85 0 min 0 W/m -6,7 C -0,5 C 1,2 km/h (1 Bft)
26.01.2010 14:45 -0,5 C 63 % 1040,5 hPa 0,0 l/m 4,6 km/h (1 Bft) NO 50 0 min 0 W/m -6,7 C -0,5 C 4,6 km/h (1 Bft)
26.01.2010 14:51 -0,5 C 63 % 1040,5 hPa 0,0 l/m 7,6 km/h (2 Bft) O 80 0 min 0 W/m -6,7 C -1,8 C 7,6 km/h (2 Bft)
26.01.2010 14:55 -0,6 C 63 % 1040,5 hPa 0,0 l/m 6,7 km/h (2 Bft) NO 50 0 min 0 W/m -6,8 C -0,9 C 6,7 km/h (2 Bft)
26.01.2010 15:00 -0,6 C 64 % 1040,5 hPa 0,0 l/m 6,5 km/h (2 Bft) O 90 0 min 0 W/m -6,5 C -0,7 C 6,5 km/h (2 Bft)
26.01.2010 15:05 -0,7 C 64 % 1040,5 hPa 0,0 l/m 5,1 km/h (1 Bft) O-NO 65 0 min 0 W/m -6,6 C -0,7 C 5,1 km/h (1 Bft)
26.01.2010 15:10 -0,8 C 64 % 1040,5 hPa 0,0 l/m 0,3 km/h (0 Bft) O-NO 60 0 min 0 W/m -6,7 C -0,8 C 0,3 km/h (0 Bft)
26.01.2010 15:15 -0,7 C 64 % 1040,5 hPa 0,0 l/m 0,1 km/h (0 Bft) O-NO 60 0 min 0 W/m -6,6 C -0,7 C 0,1 km/h (0 Bft)
26.01.2010 15:20 -0,7 C 64 % 1040,5 hPa 0,0 l/m 0,3 km/h (0 Bft) O-NO 60 0 min 0 W/m -6,6 C -0,7 C 0,3 km/h (0 Bft)
26.01.2010 15:25 -0,8 C 65 % 1040,5 hPa 0,0 l/m 0,7 km/h (0 Bft) O-NO 65 0 min 0 W/m -6,5 C -0,8 C 0,7 km/h (0 Bft)
26.01.2010 15:30 -0,8 C 65 % 1040,5 hPa 0,0 l/m 0,0 km/h (0 Bft) O-NO 65 0 min 0 W/m -6,5 C -0,8 C 0,0 km/h (0 Bft)
26.01.2010 15:35 -1,0 C 65 % 1040,5 hPa 0,0 l/m 0,0 km/h (0 Bft) O-NO 70 0 min 0 W/m -6,7 C -1,0 C 0,0 km/h (0 Bft)
26.01.2010 15:40 -1,0 C 65 % 1040,5 hPa 0,0 l/m 0,0 km/h (0 Bft) O-NO 65 0 min 0 W/m -6,7 C -1,0 C 0,0 km/h (0 Bft)
26.01.2010 15:45 -1,1 C 65 % 1040,5 hPa 0,0 l/m 0,0 km/h (0 Bft) O-NO 60 0 min 0 W/m -6,8 C -1,1 C 0,0 km/h (0 Bft)
26.01.2010 15:50 -1,2 C 66 % 1040,5 hPa 0,0 l/m 0,6 km/h (0 Bft) NO 45 0 min 0 W/m -6,7 C -1,2 C 0,6 km/h (0 Bft)
26.01.2010 15:56 -1,3 C 66 % 1040,5 hPa 0,0 l/m 0,0 km/h (0 Bft) NO 45 0 min 0 W/m -6,8 C -1,3 C 0,0 km/h (0 Bft)
26.01.2010 16:00 -1,4 C 66 % 1040,5 hPa 0,0 l/m 0,0 km/h (0 Bft) NO 45 0 min 0 W/m -6,9 C -1,4 C 0,0 km/h (0 Bft)
26.01.2010 16:06 -1,4 C 66 % 1040,5 hPa 0,0 l/m 0,0 km/h (0 Bft) NO 45 0 min 0 W/m -6,9 C -1,4 C 0,0 km/h (0 Bft)
26.01.2010 16:10 -1,4 C 67 % 1040,5 hPa 0,0 l/m 0,0 km/h (0 Bft) NO 45 0 min 0 W/m -6,7 C -1,4 C 0,0 km/h (0 Bft)
26.01.2010 16:15 -1,4 C 67 % 1040,5 hPa 0,0 l/m 0,0 km/h (0 Bft) NO 45 0 min 0 W/m -6,7 C -1,4 C 0,0 km/h (0 Bft)
26.01.2010 16:20 -1,5 C 67 % 1040,5 hPa 0,0 l/m 0,0 km/h (0 Bft) NO 45 0 min 0 W/m -6,8 C -1,5 C 0,0 km/h (0 Bft)
26.01.2010 16:25 -1,6 C 67 % 1040,5 hPa 0,0 l/m 0,0 km/h (0 Bft) NO 45 0 min 0 W/m -6,9 C -1,6 C 0,0 km/h (0 Bft)
26.01.2010 16:30 -1,7 C 67 % 1040,5 hPa 0,0 l/m 0,0 km/h (0 Bft) NO 45 0 min 0 W/m -7,0 C -1,7 C 0,0 km/h (0 Bft)
26.01.2010 16:35 -1,7 C 67 % 1040,5 hPa 0,0 l/m 0,0 km/h (0 Bft) NO 45 0 min 0 W/m -7,0 C -1,7 C 0,0 km/h (0 Bft)
26.01.2010 16:40 -1,8 C 67 % 1040,5 hPa 0,0 l/m 0,0 km/h (0 Bft) NO 45 0 min 0 W/m -7,1 C -1,8 C 0,0 km/h (0 Bft)
26.01.2010 16:45 -1,9 C 68 % 1040,5 hPa 0,0 l/m 0,0 km/h (0 Bft) NO 45 0 min 0 W/m -7,0 C -1,9 C 0,0 km/h (0 Bft)
26.01.2010 16:50 -2,0 C 68 % 1040,5 hPa 0,0 l/m 0,0 km/h (0 Bft) NO 45 0 min 0 W/m -7,1 C -2,0 C 0,0 km/h (0 Bft)
26.01.2010 16:55 -2,2 C 68 % 1040,5 hPa 0,0 l/m 0,0 km/h (0 Bft) NO 45 0 min 0 W/m -7,3 C -2,2 C 0,0 km/h (0 Bft)
26.01.2010 17:00 -2,2 C 68 % 1040,5 hPa 0,0 l/m 0,0 km/h (0 Bft) NO 45 0 min 0 W/m -7,3 C -2,2 C 0,0 km/h (0 Bft)
26.01.2010 17:05 -2,2 C 68 % 1040,5 hPa 0,0 l/m 0,0 km/h (0 Bft) NO 45 0 min 0 W/m -7,3 C -2,2 C 0,0 km/h (0 Bft)
26.01.2010 17:10 -2,3 C 68 % 1040,5 hPa 0,0 l/m 0,0 km/h (0 Bft) NO 45 0 min 0 W/m -7,4 C -2,3 C 0,0 km/h (0 Bft)
26.01.2010 17:15 -2,4 C 69 % 1040,5 hPa 0,0 l/m 0,0 km/h (0 Bft) NO 45 0 min 0 W/m -7,3 C -2,4 C 0,0 km/h (0 Bft)
26.01.2010 17:20 -2,5 C 69 % 1040,5 hPa 0,0 l/m 0,0 km/h (0 Bft) NO 45 0 min 0 W/m -7,4 C -2,5 C 0,0 km/h (0 Bft)
26.01.2010 17:26 -2,6 C 69 % 1040,5 hPa 0,0 l/m 0,0 km/h (0 Bft) NO 45 0 min 0 W/m -7,5 C -2,6 C 0,0 km/h (0 Bft)
26.01.2010 17:30 -2,6 C 69 % 1040,5 hPa 0,0 l/m 0,0 km/h (0 Bft) NO 45 0 min 0 W/m -7,5 C -2,6 C 0,0 km/h (0 Bft)
26.01.2010 17:35 -2,6 C 69 % 1040,5 hPa 0,0 l/m 0,0 km/h (0 Bft) NO 45 0 min 0 W/m -7,5 C -2,6 C 0,0 km/h (0 Bft)
26.01.2010 17:40 -2,7 C 70 % 1040,5 hPa 0,0 l/m 0,0 km/h (0 Bft) NO 45 0 min 0 W/m -7,4 C -2,7 C 0,0 km/h (0 Bft)
26.01.2010 17:45 -2,8 C 70 % 1040,5 hPa 0,0 l/m 0,0 km/h (0 Bft) NO 45 0 min 0 W/m -7,5 C -2,8 C 0,0 km/h (0 Bft)
26.01.2010 17:50 -2,8 C 70 % 1040,5 hPa 0,0 l/m 0,0 km/h (0 Bft) NO 45 0 min 0 W/m -7,5 C -2,8 C 0,0 km/h (0 Bft)
26.01.2010 17:55 -2,8 C 70 % 1040,5 hPa 0,0 l/m 0,0 km/h (0 Bft) NO 45 0 min 0 W/m -7,5 C -2,8 C 0,0 km/h (0 Bft)
26.01.2010 18:00 -3,0 C 70 % 1040,5 hPa 0,0 l/m 0,0 km/h (0 Bft) NO 45 0 min 0 W/m -7,7 C -3,0 C 0,0 km/h (0 Bft)
26.01.2010 18:05 -3,0 C 70 % 1040,5 hPa 0,0 l/m 0,0 km/h (0 Bft) NO 45 0 min 0 W/m -7,7 C -3,0 C 0,0 km/h (0 Bft)
26.01.2010 18:11 -3,0 C 70 % 1040,5 hPa 0,0 l/m 0,0 km/h (0 Bft) NO 45 0 min 0 W/m -7,7 C -3,0 C 0,0 km/h (0 Bft)
26.01.2010 18:15 -3,1 C 70 % 1040,5 hPa 0,0 l/m 0,0 km/h (0 Bft) NO 45 0 min 0 W/m -7,8 C -3,1 C 0,0 km/h (0 Bft)
26.01.2010 18:20 -3,2 C 71 % 1040,5 hPa 0,0 l/m 0,0 km/h (0 Bft) NO 45 0 min 0 W/m -7,7 C -3,2 C 0,0 km/h (0 Bft)
26.01.2010 18:25 -3,2 C 71 % 1040,5 hPa 0,0 l/m 0,0 km/h (0 Bft) NO 45 0 min 0 W/m -7,7 C -3,2 C 0,0 km/h (0 Bft)
26.01.2010 18:30 -3,3 C 71 % 1040,5 hPa 0,0 l/m 0,0 km/h (0 Bft) NO 45 0 min 0 W/m -7,8 C -3,3 C 0,0 km/h (0 Bft)
26.01.2010 18:35 -3,4 C 71 % 1040,5 hPa 0,0 l/m 0,0 km/h (0 Bft) NO 45 0 min 0 W/m -7,9 C -3,4 C 0,0 km/h (0 Bft)
26.01.2010 18:40 -3,4 C 71 % 1040,5 hPa 0,0 l/m 0,0 km/h (0 Bft) NO 45 0 min 0 W/m -7,9 C -3,4 C 0,0 km/h (0 Bft)
26.01.2010 18:45 -3,4 C 71 % 1040,5 hPa 0,0 l/m 0,0 km/h (0 Bft) NO 45 0 min 0 W/m -7,9 C -3,4 C 0,0 km/h (0 Bft)
26.01.2010 18:50 -3,5 C 71 % 1040,5 hPa 0,0 l/m 0,0 km/h (0 Bft) NO 45 0 min 0 W/m -8,0 C -3,5 C 0,0 km/h (0 Bft)
26.01.2010 18:55 -3,6 C 70 % 1040,5 hPa 0,0 l/m 0,0 km/h (0 Bft) NO 45 0 min 0 W/m -8,3 C -3,6 C 0,0 km/h (0 Bft)
26.01.2010 19:00 -3,6 C 70 % 1040,5 hPa 0,0 l/m 0,0 km/h (0 Bft) NO 45 0 min 0 W/m -8,3 C -3,6 C 0,0 km/h (0 Bft)
26.01.2010 19:06 -3,7 C 70 % 1040,5 hPa 0,0 l/m 0,0 km/h (0 Bft) NO 45 0 min 0 W/m -8,4 C -3,7 C 0,0 km/h (0 Bft)
26.01.2010 19:10 -3,8 C 71 % 1040,5 hPa 0,0 l/m 0,0 km/h (0 Bft) NO 45 0 min 0 W/m -8,3 C -3,8 C 0,0 km/h (0 Bft)
26.01.2010 19:15 -3,8 C 71 % 1040,5 hPa 0,0 l/m 0,0 km/h (0 Bft) NO 45 0 min 0 W/m -8,3 C -3,8 C 0,0 km/h (0 Bft)
26.01.2010 19:20 -4,0 C 71 % 1040,5 hPa 0,0 l/m 0,0 km/h (0 Bft) NO 45 0 min 0 W/m -8,5 C -4,0 C 0,0 km/h (0 Bft)
26.01.2010 19:25 -4,0 C 71 % 1040,5 hPa 0,0 l/m 0,0 km/h (0 Bft) NO 45 0 min 0 W/m -8,5 C -4,0 C 0,0 km/h (0 Bft)
26.01.2010 19:30 -4,1 C 71 % 1040,5 hPa 0,0 l/m 0,0 km/h (0 Bft) NO 45 0 min 0 W/m -8,6 C -4,1 C 0,0 km/h (0 Bft)
26.01.2010 19:35 -4,2 C 71 % 1040,5 hPa 0,0 l/m 0,0 km/h (0 Bft) NO 45 0 min 0 W/m -8,7 C -4,2 C 0,0 km/h (0 Bft)
26.01.2010 19:41 -4,2 C 71 % 1040,5 hPa 0,0 l/m 0,0 km/h (0 Bft) NO 45 0 min 0 W/m -8,7 C -4,2 C 0,0 km/h (0 Bft)
26.01.2010 19:45 -4,2 C 71 % 1040,5 hPa 0,0 l/m 0,0 km/h (0 Bft) NO 45 0 min 0 W/m -8,7 C -4,2 C 0,0 km/h (0 Bft)
26.01.2010 19:50 -4,2 C 71 % 1040,5 hPa 0,0 l/m 0,0 km/h (0 Bft) NO 45 0 min 0 W/m -8,7 C -4,2 C 0,0 km/h (0 Bft)
26.01.2010 19:56 -4,3 C 72 % 1040,5 hPa 0,0 l/m 0,0 km/h (0 Bft) NO 45 0 min 0 W/m -8,6 C -4,3 C 0,0 km/h (0 Bft)
26.01.2010 20:00 -4,4 C 72 % 1040,5 hPa 0,0 l/m 0,0 km/h (0 Bft) NO 45 0 min 0 W/m -8,7 C -4,4 C 0,0 km/h (0 Bft)
26.01.2010 20:05 -4,4 C 72 % 1040,5 hPa 0,0 l/m 0,0 km/h (0 Bft) NO 45 0 min 0 W/m -8,7 C -4,4 C 0,0 km/h (0 Bft)
26.01.2010 20:10 -4,4 C 72 % 1040,5 hPa 0,0 l/m 0,0 km/h (0 Bft) NO 45 0 min 0 W/m -8,7 C -4,4 C 0,0 km/h (0 Bft)
26.01.2010 20:15 -4,4 C 72 % 1040,5 hPa 0,0 l/m 0,0 km/h (0 Bft) NO 45 0 min 0 W/m -8,7 C -4,4 C 0,0 km/h (0 Bft)
26.01.2010 20:20 -4,4 C 72 % 1040,5 hPa 0,0 l/m 0,0 km/h (0 Bft) NO 45 0 min 0 W/m -8,7 C -4,4 C 0,0 km/h (0 Bft)
26.01.2010 20:25 -4,5 C 72 % 1040,5 hPa 0,0 l/m 0,0 km/h (0 Bft) NO 45 0 min 0 W/m -8,8 C -4,5 C 0,0 km/h (0 Bft)
26.01.2010 20:30 -4,5 C 72 % 1040,5 hPa 0,0 l/m 0,0 km/h (0 Bft) NO 45 0 min 0 W/m -8,8 C -4,5 C 0,0 km/h (0 Bft)
26.01.2010 20:35 -4,5 C 72 % 1040,5 hPa 0,0 l/m 0,0 km/h (0 Bft) NO 45 0 min 0 W/m -8,8 C -4,5 C 0,0 km/h (0 Bft)
26.01.2010 20:40 -4,6 C 72 % 1040,5 hPa 0,0 l/m 0,0 km/h (0 Bft) NO 45 0 min 0 W/m -8,9 C -4,6 C 0,0 km/h (0 Bft)
26.01.2010 20:45 -4,6 C 72 % 1040,5 hPa 0,0 l/m 0,0 km/h (0 Bft) NO 45 0 min 0 W/m -8,9 C -4,6 C 0,0 km/h (0 Bft)
26.01.2010 20:50 -4,7 C 72 % 1040,5 hPa 0,0 l/m 0,0 km/h (0 Bft) NO 45 0 min 0 W/m -9,0 C -4,7 C 0,0 km/h (0 Bft)
26.01.2010 20:55 -4,7 C 72 % 1040,5 hPa 0,0 l/m 0,0 km/h (0 Bft) NO 45 0 min 0 W/m -9,0 C -4,7 C 0,0 km/h (0 Bft)
26.01.2010 21:00 -4,7 C 72 % 1040,5 hPa 0,0 l/m 0,0 km/h (0 Bft) NO 45 0 min 0 W/m -9,0 C -4,7 C 0,0 km/h (0 Bft)
26.01.2010 21:05 -4,7 C 72 % 1040,5 hPa 0,0 l/m 0,0 km/h (0 Bft) NO 45 0 min 0 W/m -9,0 C -4,7 C 0,0 km/h (0 Bft)
26.01.2010 21:10 -4,7 C 72 % 1040,5 hPa 0,0 l/m 0,0 km/h (0 Bft) NO 45 0 min 0 W/m -9,0 C -4,7 C 0,0 km/h (0 Bft)
26.01.2010 21:15 -4,9 C 72 % 1040,5 hPa 0,0 l/m 0,0 km/h (0 Bft) NO 45 0 min 0 W/m -9,1 C -4,9 C 0,0 km/h (0 Bft)
26.01.2010 21:20 -5,0 C 72 % 1040,5 hPa 0,0 l/m 0,0 km/h (0 Bft) NO 45 0 min 0 W/m -9,2 C -5,0 C 0,0 km/h (0 Bft)
26.01.2010 21:25 -5,0 C 72 % 1040,5 hPa 0,0 l/m 0,0 km/h (0 Bft) NO 45 0 min 0 W/m -9,2 C -5,0 C 0,0 km/h (0 Bft)
26.01.2010 21:30 -5,0 C 72 % 1040,5 hPa 0,0 l/m 0,0 km/h (0 Bft) NO 45 0 min 0 W/m -9,2 C -5,0 C 0,0 km/h (0 Bft)
26.01.2010 21:35 -5,0 C 72 % 1040,5 hPa 0,0 l/m 0,0 km/h (0 Bft) NO 45 0 min 0 W/m -9,2 C -5,0 C 0,0 km/h (0 Bft)
26.01.2010 21:40 -5,0 C 72 % 1040,5 hPa 0,0 l/m 0,0 km/h (0 Bft) NO 45 0 min 0 W/m -9,2 C -5,0 C 0,0 km/h (0 Bft)
26.01.2010 21:45 -5,0 C 72 % 1040,5 hPa 0,0 l/m 0,0 km/h (0 Bft) NO 45 0 min 0 W/m -9,2 C -5,0 C 0,0 km/h (0 Bft)
26.01.2010 21:50 -5,3 C 72 % 1040,5 hPa 0,0 l/m 0,0 km/h (0 Bft) NO 45 0 min 0 W/m -9,5 C -5,3 C 0,0 km/h (0 Bft)
26.01.2010 21:55 -5,3 C 72 % 1040,5 hPa 0,0 l/m 0,0 km/h (0 Bft) NO 45 0 min 0 W/m -9,5 C -5,3 C 0,0 km/h (0 Bft)
26.01.2010 22:00 -5,3 C 72 % 1040,5 hPa 0,0 l/m 0,0 km/h (0 Bft) NO 45 0 min 0 W/m -9,5 C -5,3 C 0,0 km/h (0 Bft)
26.01.2010 22:05 -5,3 C 72 % 1040,5 hPa 0,0 l/m 0,0 km/h (0 Bft) NO 45 0 min 0 W/m -9,5 C -5,3 C 0,0 km/h (0 Bft)
26.01.2010 22:10 -5,3 C 72 % 1040,5 hPa 0,0 l/m 0,0 km/h (0 Bft) NO 45 0 min 0 W/m -9,5 C -5,3 C 0,0 km/h (0 Bft)
26.01.2010 22:16 -5,3 C 72 % 1040,5 hPa 0,0 l/m 0,0 km/h (0 Bft) NO 45 0 min 0 W/m -9,5 C -5,3 C 0,0 km/h (0 Bft)
26.01.2010 22:20 -5,3 C 72 % 1039,5 hPa 0,0 l/m 0,0 km/h (0 Bft) NO 45 0 min 0 W/m -9,5 C -5,3 C 0,0 km/h (0 Bft)
26.01.2010 22:25 -5,4 C 72 % 1039,5 hPa 0,0 l/m 0,0 km/h (0 Bft) NO 45 0 min 0 W/m -9,6 C -5,4 C 0,0 km/h (0 Bft)
26.01.2010 22:30 -5,5 C 72 % 1039,5 hPa 0,0 l/m 0,0 km/h (0 Bft) NO 45 0 min 0 W/m -9,7 C -5,5 C 0,0 km/h (0 Bft)
26.01.2010 22:35 -5,5 C 72 % 1039,5 hPa 0,0 l/m 0,0 km/h (0 Bft) NO 45 0 min 0 W/m -9,7 C -5,5 C 0,0 km/h (0 Bft)
26.01.2010 22:40 -5,5 C 72 % 1039,5 hPa 0,0 l/m 0,0 km/h (0 Bft) NO 45 0 min 0 W/m -9,7 C -5,5 C 0,0 km/h (0 Bft)
26.01.2010 22:45 -5,5 C 72 % 1039,5 hPa 0,0 l/m 0,0 km/h (0 Bft) NO 45 0 min 0 W/m -9,7 C -5,5 C 0,0 km/h (0 Bft)
26.01.2010 22:50 -5,5 C 72 % 1039,5 hPa 0,0 l/m 0,0 km/h (0 Bft) NO 45 0 min 0 W/m -9,7 C -5,5 C 0,0 km/h (0 Bft)
26.01.2010 22:55 -5,5 C 72 % 1039,5 hPa 0,0 l/m 0,0 km/h (0 Bft) NO 45 0 min 0 W/m -9,7 C -5,5 C 0,0 km/h (0 Bft)
26.01.2010 23:00 -5,5 C 72 % 1039,5 hPa 0,0 l/m 0,0 km/h (0 Bft) NO 45 0 min 0 W/m -9,7 C -5,5 C 0,0 km/h (0 Bft)
26.01.2010 23:05 -5,5 C 72 % 1039,5 hPa 0,0 l/m 0,0 km/h (0 Bft) NO 45 0 min 0 W/m -9,7 C -5,5 C 0,0 km/h (0 Bft)
26.01.2010 23:11 -5,5 C 72 % 1039,5 hPa 0,0 l/m 0,8 km/h (0 Bft) NO 45 0 min 0 W/m -9,7 C -5,5 C 0,8 km/h (0 Bft)
26.01.2010 23:15 -5,5 C 72 % 1039,5 hPa 0,0 l/m 0,0 km/h (0 Bft) NO 45 0 min 0 W/m -9,7 C -5,5 C 0,0 km/h (0 Bft)
26.01.2010 23:20 -5,5 C 72 % 1039,5 hPa 0,0 l/m 0,0 km/h (0 Bft) NO 45 0 min 0 W/m -9,7 C -5,5 C 0,0 km/h (0 Bft)
26.01.2010 23:25 -5,5 C 72 % 1039,5 hPa 0,0 l/m 0,0 km/h (0 Bft) NO 45 0 min 0 W/m -9,7 C -5,5 C 0,0 km/h (0 Bft)
26.01.2010 23:30 -5,5 C 72 % 1039,5 hPa 0,0 l/m 0,0 km/h (0 Bft) NO 45 0 min 0 W/m -9,7 C -5,5 C 0,0 km/h (0 Bft)
26.01.2010 23:35 -5,5 C 72 % 1039,5 hPa 0,0 l/m 0,0 km/h (0 Bft) NO 45 0 min 0 W/m -9,7 C -5,5 C 0,0 km/h (0 Bft)
26.01.2010 23:40 -5,6 C 72 % 1039,5 hPa 0,0 l/m 0,0 km/h (0 Bft) NO 45 0 min 0 W/m -9,8 C -5,6 C 0,0 km/h (0 Bft)
26.01.2010 23:45 -5,6 C 72 % 1038,5 hPa 0,0 l/m 0,0 km/h (0 Bft) NO 45 0 min 0 W/m -9,8 C -5,6 C 0,0 km/h (0 Bft)
26.01.2010 23:50 -5,5 C 72 % 1038,5 hPa 0,0 l/m 0,0 km/h (0 Bft) NO 45 0 min 0 W/m -9,7 C -5,5 C 0,0 km/h (0 Bft)
26.01.2010 23:55 -5,5 C 72 % 1038,5 hPa 0,0 l/m 0,0 km/h (0 Bft) NO 45 0 min 0 W/m -9,7 C -5,5 C 0,0 km/h (0 Bft)
_ Min-Zeit 05:45 13:05 00:00 - 02:46 - - - - 05:45 01:15 02:46
Minimum _ -7,8 C 61 % 1037,5 hPa - 0,0 km/h (0 Bft) - - - - -12,8 C -13,2 C 0,0 km/h (0 Bft)
_ Max-Zeit 13:05 09:20 10:40 14:10 11:45 - - 00:00 00:00 12:20 13:26 11:45
Maximum _ -0,3 C 75 % 1041,5 hPa 0,3 l/m 13,0 km/h
O (3 Bft)
- - 0 min 0 W/m -6,3 C -0,3 C 13,0 km/h
O (3 Bft)
Durchschnitt _ -4,7 C 69 % 1039,8 hPa #0,3 l/m 2,7 km/h (1 Bft) O - #0 min. 0 W/m -9,5 C -5,3 C 2,7 km/h (1 Bft)
copyright by Holger Just